< < Back
Terminal Aerodrome Forecast


Current Version              Previous Versions:   1  2  3  4  5  6  7  8  9  

Terminal Aerodrome Forecast

045
FTUS42 KGSP 231100
TAFAVL
TAF
KAVL 231125Z 2312/2412 35014G22KT P6SM SKC
     FM240000 34009KT P6SM FEW250
     FM240600 35003KT P6SM FEW250=



Latest METAR

212
SAUS70 KWBC 231400
MTRAVL
METAR KAVL 231354Z 36013G19KT 10SM CLR 13/M02 A2996 RMK AO2 SLP133
T01281017


USA.gov is the U.S. government's official web portal to all federal, state and local government web resources and services.